Terminal Aerodrome Forecast
Issued by NWS North Platte, NE

Home | Current Version | Previous Version | Text Only | Print | Product List | Glossary Off
Versions: 1 2 3 4 5 6 7 8 9 10 11 12 13

000
FTUS43 KLBF 260523
TAFVTN
TAF
KVTN 260523Z 2606/2706 09007KT P6SM BKN110
     FM260800 VRB05KT P6SM SKC
     FM261400 06007KT P6SM SKC
     FM262200 08006KT P6SM SCT110
     FM270100 10006KT P6SM SCT250=

USA.gov is the U.S. government's official web portal to all federal, state and local government web resources and services.